METAR Data
IDs: Format: Raw Decoded Include TAF

Data at: 0248 UTC 20 Jan 2022

EDDG 200220Z 27014KT 9999 SCT017 BKN024 04/03 Q1020 NOSIG